Terminal Aerodrome Forecast
Issued by NWS Cleveland, OH

Home | Current Version | Previous Version | Text Only | Print | Product List | Glossary On
Versions: 1 2 3 4 5 6 7 8 9 10 11 12 13 14 15 16 17 18
000
FTUS41 KCLE 312300
TAFCAK
TAF
KCAK 312338Z 0100/0124 23006KT P6SM BKN035 OVC250
     FM010300 23006KT P6SM SCT035 OVC100
     FM010830 20005KT 4SM -SN SCT008 OVC035
     FM011000 20006KT 1SM -SN OVC008
     FM011600 12008KT 3/4SM -SN OVC006
     FM012100 09008KT 1/2SM SN OVC004=

USA.gov is the U.S. government's official web portal to all federal, state and local government web resources and services.